Maysville, Iowa
Current Conditions -  °F | °C
As of 10:52 AM on Wednesday 26 Nov 2014 (Local Time) from KDVN Reporting Station
Haze Haze  
Wind Chill: 13°   Ceiling: 6000
Heat Index: 25°   Visibility: 6mi
Dew Point: 20°   Wind: 15mph
Humidity: 81%   Direction: 100°E
Pressure: 30.06"   Gusts: NA
Location:  41.6175°N, 90.7599°W
Report Text: KDVN 261652Z AUTO 10013KT 6SM HZ OVC060 M04/M07 A3006 RMK AO2 SLP191 T10391067
Loading
Personal Weather Stations






























Interactive Weather Map New forecast layout! Learn more

10-Day Weather Forecast

Advertisements
Track Severe Weather on mobile